Watertown, Ohio
Current Conditions -  °F | °C
As of 10:53 PM on Saturday 22 Nov 2014 (Local Time) from KPKB Reporting Station
Few Clouds Few Clouds  
Wind Chill: 50°   Ceiling: Unl
Heat Index: 50°   Visibility: 10mi
Dew Point: 26°   Wind: 6mph
Humidity: 39%   Direction: 180°S
Pressure: 30.14"   Gusts: NA
Location:  39.47°N, 81.63°W
Report Text: KPKB 230353Z AUTO 18005KT 10SM FEW100 10/M03 A3014 RMK AO2 SLP209 T01001033
Loading
Personal Weather Stations






























Interactive Weather Map New forecast layout! Learn more

10-Day Weather Forecast

Advertisements
Track Severe Weather on mobile